Long Island City, NY (11105)

2:27 PM EDT on September 28, 2016 (GMT -0400)
APRSWXNET | | Change Station

Elev 41 ft 40.78 °N, 73.92 °W | Updated 30 minutes ago

Overcast
Overcast
68 °F
Feels Like 68 °F
N
2
Wind Variable Wind from NNW
Gusts 9.0 mph

Today
High -- | Low -- °F
--% Chance of Precip.
Yesterday
High -- | Low -- °F
Precip. -- in
Pressure 30.12 in
Visibility 10.0 miles
Clouds Mostly Cloudy 2000 ft
Mostly Cloudy 4600 ft
Overcast 8000 ft
Dew Point 61 °F
Humidity 77%
Rainfall in
Snow Depth Not available.
6:49 AM 6:41 PM
Waning Crescent, 5% visible
SPECI KLGA 281819Z 06015KT 10SM BKN020 BKN046 OVC080 20/14 A3012 RMK AO2 T02000144
Pressure 30.12 in
Visibility 10.0 miles
Clouds Mostly Cloudy 2000 ft
Mostly Cloudy 4600 ft
Overcast 8000 ft
Dew Point 61 °F
Humidity 77%
Rainfall in
Snow Depth Not available.
6:49 AM 6:41 PM
Waning Crescent, 5% visible
SPECI KLGA 281819Z 06015KT 10SM BKN020 BKN046 OVC080 20/14 A3012 RMK AO2 T02000144

10-Day Weather Forecast

Almanac

Astronomy

Sep. 28, 2016 Rise Set
Actual Time
Civil Twilight
Nautical Twilight
Astronomical Twilight
Moon
Length of Visible Light
Length of Day
Tomorrow will be .
, % of the Moon is Illuminated

Today's Extremes

State Highs State Lows

Community

WunderPhotos

Upload Photos

1,942,297 photos uploaded!

WunderBlog® & News

Nearby

Air Quality

  Air Quality AQ Index Pollutant
Not available.

Snow Depth

Station Depth Elevation

Earthquake Activity

City Distance Mag. Time & Date
Minimum magnitude displayed is 2.5.

Coastal Water Temperatures

Place Temperature

Stations

Nearby Weather Stations

Station Location Temp. Windchill Dew Point Humidity Wind Precip. Elev Updated Type
                   

Watches & Warnings

There are currently no watches in effect.